createdAt,value
2023-03-24T00:01:39.841Z,4.65
2023-03-24T00:05:57.583Z,4.20
2023-03-24T00:10:15.466Z,5.13
2023-03-24T00:14:33.376Z,4.60
2023-03-24T00:18:56.130Z,4.40
2023-03-24T00:23:28.189Z,5.07
2023-03-24T00:27:49.925Z,4.40
2023-03-24T00:31:57.835Z,4.97
2023-03-24T00:36:01.809Z,5.15
2023-03-24T00:40:09.367Z,5.53
2023-03-24T00:44:18.490Z,5.82
2023-03-24T00:48:24.611Z,5.35
2023-03-24T00:52:34.307Z,5.28
2023-03-24T00:56:40.959Z,5.15
2023-03-24T01:00:44.516Z,6.10
2023-03-24T01:09:11.469Z,5.20
2023-03-24T01:13:16.256Z,5.03
2023-03-24T01:17:30.348Z,4.30
2023-03-24T01:21:42.590Z,4.53
2023-03-24T01:25:48.608Z,4.95
2023-03-24T01:29:52.604Z,4.65
2023-03-24T01:33:56.350Z,5.00
2023-03-24T01:38:01.210Z,4.93
2023-03-24T01:42:04.924Z,5.35
2023-03-24T01:46:17.976Z,5.05
2023-03-24T01:50:21.665Z,5.13
2023-03-24T01:54:32.310Z,6.03
2023-03-24T01:58:39.704Z,5.28
2023-03-24T02:02:47.264Z,5.65
2023-03-24T02:07:05.937Z,6.03
2023-03-24T02:11:15.425Z,5.70
2023-03-24T02:15:33.712Z,6.13
2023-03-24T02:20:34.161Z,5.07
2023-03-24T02:25:27.391Z,5.70
2023-03-24T02:30:11.137Z,5.80
2023-03-24T02:34:50.236Z,5.28
2023-03-24T02:43:36.940Z,6.65
2023-03-24T02:47:54.693Z,6.78
2023-03-24T02:52:03.232Z,5.60
2023-03-24T02:56:12.117Z,5.90
2023-03-24T03:00:23.984Z,6.40
2023-03-24T03:04:34.340Z,7.30
2023-03-24T03:08:42.181Z,6.32
2023-03-24T03:12:50.677Z,7.15
2023-03-24T03:17:00.262Z,7.25
2023-03-24T03:21:07.567Z,7.72
2023-03-24T03:25:14.296Z,7.78
2023-03-24T03:29:24.536Z,7.50
2023-03-24T03:33:35.929Z,7.65
2023-03-24T03:37:47.318Z,8.00
2023-03-24T03:41:50.208Z,7.97
2023-03-24T03:45:53.766Z,7.95
2023-03-24T03:50:02.501Z,8.10
2023-03-24T03:54:09.357Z,8.55
2023-03-24T03:58:12.099Z,8.13
2023-03-24T04:06:39.242Z,7.93
2023-03-24T04:11:01.383Z,8.90
2023-03-24T04:15:26.564Z,7.82
2023-03-24T04:19:42.265Z,8.10
2023-03-24T04:23:55.887Z,8.85
2023-03-24T04:28:06.831Z,8.43
2023-03-24T04:32:20.347Z,9.50
2023-03-24T04:36:30.855Z,9.93
2023-03-24T04:40:42.307Z,9.38
2023-03-24T04:44:46.668Z,9.32
2023-03-24T04:48:50.472Z,8.82
2023-03-24T04:52:53.379Z,9.10
2023-03-24T04:57:02.300Z,10.00
2023-03-24T05:01:06.220Z,10.65
2023-03-24T05:05:10.121Z,9.45
2023-03-24T05:09:15.081Z,10.05
2023-03-24T05:13:19.437Z,10.38
2023-03-24T05:17:22.859Z,10.50
2023-03-24T05:21:31.831Z,10.73
2023-03-24T05:25:36.033Z,10.70
2023-03-24T05:33:43.343Z,9.45
2023-03-24T05:37:46.599Z,10.27
2023-03-24T05:41:49.604Z,9.95
2023-03-24T05:45:54.181Z,9.32
2023-03-24T05:49:57.261Z,10.55
2023-03-24T05:58:03.853Z,8.63
2023-03-24T06:02:08.251Z,10.13
2023-03-24T06:06:17.017Z,9.20
2023-03-24T06:10:20.421Z,8.40
2023-03-24T06:14:23.524Z,9.05
2023-03-24T06:18:28.248Z,8.85
2023-03-24T06:22:32.721Z,8.35
2023-03-24T06:26:35.700Z,7.72
2023-03-24T06:30:39.063Z,7.55
2023-03-24T06:34:45.211Z,8.25
2023-03-24T06:38:48.171Z,6.97
2023-03-24T06:46:53.524Z,6.53
2023-03-24T06:50:57.898Z,6.18
2023-03-24T06:55:00.845Z,7.18
2023-03-24T06:59:04.000Z,6.43
2023-03-24T07:03:08.241Z,8.02
2023-03-24T07:07:52.669Z,6.55
2023-03-24T07:11:36.799Z,6.80
2023-03-24T07:15:39.865Z,7.03
2023-03-24T07:19:42.778Z,6.78
2023-03-24T07:23:47.553Z,9.10
2023-03-24T07:27:50.802Z,8.52
2023-03-24T07:31:54.734Z,7.07
2023-03-24T07:35:59.050Z,7.03
2023-03-24T07:40:05.980Z,7.40
2023-03-24T07:44:09.011Z,7.20
2023-03-24T07:52:15.643Z,7.15
2023-03-24T07:56:22.751Z,6.22
2023-03-24T08:00:25.940Z,6.47
2023-03-24T08:04:29.255Z,6.97
2023-03-24T08:08:32.769Z,7.05
2023-03-24T08:12:37.214Z,7.07
2023-03-24T08:16:40.304Z,6.75
2023-03-24T08:20:44.236Z,6.75
2023-03-24T08:24:47.417Z,7.25
2023-03-24T08:28:51.840Z,6.65
2023-03-24T08:32:56.280Z,5.78
2023-03-24T08:36:59.466Z,6.60
2023-03-24T08:41:07.196Z,6.75
2023-03-24T08:45:13.903Z,8.20
2023-03-24T08:49:16.868Z,6.25
2023-03-24T08:53:19.625Z,5.90
2023-03-24T08:57:22.610Z,5.00
2023-03-24T09:01:28.859Z,5.00
2023-03-24T09:05:54.603Z,4.93
2023-03-24T09:09:54.772Z,5.10
2023-03-24T09:13:58.265Z,5.10
2023-03-24T09:18:03.076Z,4.95
2023-03-24T09:22:08.075Z,5.88
2023-03-24T09:26:11.202Z,5.32
2023-03-24T09:30:16.769Z,5.45
2023-03-24T09:34:21.802Z,5.47
2023-03-24T09:38:25.086Z,6.15
2023-03-24T09:42:34.309Z,6.40
2023-03-24T09:46:40.868Z,5.85
2023-03-24T09:50:53.316Z,5.32
2023-03-24T09:54:58.806Z,6.50
2023-03-24T09:59:06.015Z,5.75
2023-03-24T10:03:20.615Z,5.60
2023-03-24T10:07:29.485Z,5.82
2023-03-24T10:11:40.060Z,6.13
2023-03-24T10:15:52.141Z,4.88
2023-03-24T10:20:03.842Z,4.70
2023-03-24T10:24:18.237Z,5.22
2023-03-24T10:28:25.338Z,6.00
2023-03-24T10:32:31.246Z,5.32
2023-03-24T10:36:35.015Z,6.20
2023-03-24T10:40:41.675Z,7.57
2023-03-24T10:44:44.230Z,6.30
2023-03-24T10:48:48.829Z,6.03
2023-03-24T10:52:53.606Z,5.97
2023-03-24T10:57:08.806Z,5.88
2023-03-24T11:01:24.841Z,5.57
2023-03-24T11:05:31.536Z,4.57
2023-03-24T11:09:42.559Z,5.55
2023-03-24T11:13:56.758Z,3.75
2023-03-24T11:18:01.869Z,4.30
2023-03-24T11:22:09.077Z,4.78
2023-03-24T11:26:16.321Z,4.68
2023-03-24T11:30:21.035Z,4.85
2023-03-24T11:34:27.586Z,4.00
2023-03-24T11:38:32.804Z,4.05
2023-03-24T11:42:36.938Z,3.95
2023-03-24T11:46:44.764Z,3.78
2023-03-24T11:50:48.936Z,4.43
2023-03-24T11:54:51.934Z,3.30
2023-03-24T11:59:00.220Z,3.10
2023-03-24T12:03:47.956Z,4.18
2023-03-24T12:08:17.886Z,4.32
2023-03-24T12:12:32.011Z,5.70
2023-03-24T12:16:48.883Z,4.72
2023-03-24T12:20:59.880Z,4.50
2023-03-24T12:25:30.242Z,3.88
2023-03-24T12:30:00.885Z,4.13
2023-03-24T12:34:17.072Z,3.72
2023-03-24T12:38:44.672Z,3.85
2023-03-24T12:42:55.187Z,4.03
2023-03-24T12:47:09.001Z,3.90
2023-03-24T12:51:24.430Z,3.13
2023-03-24T12:55:34.532Z,3.50
2023-03-24T12:59:44.103Z,3.65
2023-03-24T13:03:50.041Z,3.20
2023-03-24T13:07:58.750Z,3.22
2023-03-24T13:12:08.208Z,2.78
2023-03-24T13:16:17.403Z,2.95
2023-03-24T13:20:26.652Z,2.80
2023-03-24T13:24:29.511Z,3.13
2023-03-24T13:28:39.979Z,2.90
2023-03-24T13:32:50.272Z,3.10
2023-03-24T13:36:57.328Z,2.95
2023-03-24T13:41:04.679Z,3.15
2023-03-24T13:45:09.804Z,3.00
2023-03-24T13:49:16.612Z,3.30
2023-03-24T13:53:19.697Z,2.78
2023-03-24T13:57:24.389Z,3.45
2023-03-24T14:01:35.838Z,3.00
2023-03-24T14:06:02.080Z,3.50
2023-03-24T14:10:30.394Z,3.05
2023-03-24T14:14:35.988Z,3.92
2023-03-24T14:18:43.255Z,3.22
2023-03-24T14:22:48.880Z,2.78
2023-03-24T14:26:51.980Z,3.00
2023-03-24T14:31:20.994Z,2.35
2023-03-24T14:35:28.305Z,2.55
2023-03-24T14:39:37.350Z,2.65
2023-03-24T14:43:58.769Z,2.80
2023-03-24T14:48:06.201Z,2.75
2023-03-24T14:52:16.669Z,2.45
2023-03-24T14:56:23.559Z,3.30
2023-03-24T15:00:30.169Z,3.03
2023-03-24T15:04:33.847Z,3.42
2023-03-24T15:08:39.259Z,2.88
2023-03-24T15:12:48.209Z,2.53
2023-03-24T15:16:57.349Z,3.35
2023-03-24T15:21:00.192Z,3.40
2023-03-24T15:25:03.577Z,3.58
2023-03-24T15:29:08.817Z,3.30
2023-03-24T15:33:15.514Z,4.07
2023-03-24T15:37:25.273Z,3.92
2023-03-24T15:41:29.792Z,3.30
2023-03-24T15:45:37.133Z,4.00
2023-03-24T15:49:47.423Z,4.30
2023-03-24T15:53:58.291Z,4.57
2023-03-24T15:58:02.761Z,4.32
2023-03-24T16:02:17.078Z,3.92
2023-03-24T16:06:31.037Z,4.20
2023-03-24T16:10:40.040Z,4.00
2023-03-24T16:14:42.687Z,4.32
2023-03-24T16:18:48.926Z,4.93
2023-03-24T16:22:51.797Z,4.25
2023-03-24T16:26:55.180Z,4.93
2023-03-24T16:31:04.058Z,6.20
2023-03-24T16:39:17.212Z,6.45
2023-03-24T16:43:21.045Z,6.28
2023-03-24T16:47:24.172Z,5.80
2023-03-24T16:51:32.984Z,5.65
2023-03-24T16:55:36.664Z,7.85
2023-03-24T16:59:39.717Z,7.30
2023-03-24T17:03:50.047Z,5.38
2023-03-24T17:07:55.146Z,7.72
2023-03-24T17:12:02.315Z,8.27
2023-03-24T17:16:05.822Z,7.55
2023-03-24T17:20:11.281Z,8.77
2023-03-24T17:24:15.894Z,6.32
2023-03-24T17:28:21.638Z,6.53
2023-03-24T17:32:31.994Z,7.60
2023-03-24T17:36:34.832Z,6.53
2023-03-24T17:44:42.557Z,7.22
2023-03-24T17:48:46.691Z,7.65
2023-03-24T17:52:54.645Z,6.55
2023-03-24T17:57:01.220Z,7.05
2023-03-24T18:01:08.203Z,6.78
2023-03-24T18:05:13.094Z,6.50
2023-03-24T18:09:15.891Z,6.63
2023-03-24T18:17:25.487Z,6.68
2023-03-24T18:21:28.789Z,6.90
2023-03-24T18:25:31.841Z,6.70
2023-03-24T18:29:36.226Z,7.90
2023-03-24T18:33:46.805Z,6.35
2023-03-24T18:37:51.857Z,6.30
2023-03-24T18:41:54.851Z,6.75
2023-03-24T18:50:02.863Z,7.70
2023-03-24T18:54:06.651Z,7.88
2023-03-24T18:58:15.144Z,7.32
2023-03-24T19:02:19.804Z,7.20
2023-03-24T19:06:26.452Z,7.82
2023-03-24T19:10:29.231Z,9.00
2023-03-24T19:14:34.730Z,8.23
2023-03-24T19:18:39.483Z,8.07
2023-03-24T19:22:42.444Z,10.15
2023-03-24T19:26:45.280Z,11.55
2023-03-24T19:30:48.184Z,10.73
2023-03-24T19:34:54.492Z,10.32
2023-03-24T19:38:57.253Z,13.15
2023-03-24T19:43:00.154Z,12.38
2023-03-24T19:47:04.233Z,11.60
2023-03-24T19:51:08.602Z,12.88
2023-03-24T19:55:12.389Z,12.57
2023-03-24T19:59:15.645Z,12.60
2023-03-24T20:03:18.993Z,11.60
2023-03-24T20:07:24.465Z,12.85
2023-03-24T20:11:27.851Z,11.85
2023-03-24T20:15:30.862Z,12.15
2023-03-24T20:23:38.242Z,12.55
2023-03-24T20:27:41.247Z,11.25
2023-03-24T20:31:47.448Z,7.70
2023-03-24T20:35:50.752Z,12.85
2023-03-24T20:40:00.261Z,13.60
2023-03-24T20:44:03.706Z,12.85
2023-03-24T20:48:07.264Z,12.70
2023-03-24T20:52:10.621Z,12.48
2023-03-24T20:56:19.222Z,12.75
2023-03-24T21:00:22.878Z,11.93
2023-03-24T21:04:25.610Z,10.38
2023-03-24T21:08:29.106Z,8.18
2023-03-24T21:12:34.205Z,7.97
2023-03-24T21:16:37.902Z,6.97
2023-03-24T21:20:42.588Z,5.25
2023-03-24T21:24:45.584Z,6.13
2023-03-24T21:28:49.926Z,6.10
2023-03-24T21:32:55.847Z,6.00
2023-03-24T21:37:01.782Z,7.53
2023-03-24T21:41:05.485Z,5.25
2023-03-24T21:45:12.911Z,6.57
2023-03-24T21:49:19.105Z,7.13
2023-03-24T21:57:29.517Z,6.70
2023-03-24T22:01:36.178Z,7.15
2023-03-24T22:05:40.615Z,7.32
2023-03-24T22:09:44.330Z,7.65
2023-03-24T22:13:47.620Z,8.68
2023-03-24T22:17:52.409Z,8.32
2023-03-24T22:22:01.892Z,7.38
2023-03-24T22:26:07.145Z,7.28
2023-03-24T22:30:12.587Z,7.32
2023-03-24T22:34:17.148Z,8.30
2023-03-24T22:38:20.387Z,10.90
2023-03-24T22:42:23.579Z,8.00
2023-03-24T22:46:27.023Z,8.15
2023-03-24T22:50:31.614Z,6.90
2023-03-24T22:54:34.709Z,7.32
2023-03-24T23:02:40.089Z,6.88
2023-03-24T23:06:45.600Z,9.77
2023-03-24T23:10:48.735Z,9.30
2023-03-24T23:14:54.516Z,10.05
2023-03-24T23:18:57.667Z,9.13
2023-03-24T23:27:08.271Z,8.00
2023-03-24T23:31:13.612Z,8.52
2023-03-24T23:35:17.179Z,8.35
2023-03-24T23:39:22.068Z,7.88
2023-03-24T23:43:25.309Z,7.80
2023-03-24T23:47:29.108Z,9.40
2023-03-24T23:51:32.380Z,9.35
2023-03-24T23:59:41.014Z,9.75
